createdAt,value
2023-09-17T00:00:00.276Z,19.1
2023-09-17T00:01:03.282Z,19
2023-09-17T00:01:59.899Z,19.2
2023-09-17T00:02:58.740Z,19.1
2023-09-17T00:04:01.078Z,19.1
2023-09-17T00:04:59.779Z,19.1
2023-09-17T00:06:06.151Z,19.1
2023-09-17T00:07:01.387Z,19.2
2023-09-17T00:07:59.861Z,19.2
2023-09-17T00:09:01.425Z,19.3
2023-09-17T00:10:00.124Z,19.4
2023-09-17T00:11:07.299Z,19.4
2023-09-17T00:11:59.786Z,19.2
2023-09-17T00:13:01.333Z,19.3
2023-09-17T00:14:00.028Z,19
2023-09-17T00:14:58.697Z,19
2023-09-17T00:16:09.844Z,18.9
2023-09-17T00:17:01.158Z,18.7
2023-09-17T00:18:00.353Z,18.4
2023-09-17T00:18:59.017Z,18.6
2023-09-17T00:19:59.737Z,18.6
2023-09-17T00:21:12.536Z,18.4
2023-09-17T00:22:00.261Z,18.5
2023-09-17T00:22:59.192Z,18.7
2023-09-17T00:23:59.960Z,18.8
2023-09-17T00:24:58.655Z,18.8
2023-09-17T00:26:14.655Z,18.9
2023-09-17T00:27:00.686Z,19
2023-09-17T00:27:59.383Z,18.9
2023-09-17T00:29:00.111Z,19
2023-09-17T00:29:58.817Z,19
2023-09-17T00:31:01.072Z,19
2023-09-17T00:31:59.814Z,18.9
2023-09-17T00:33:01.254Z,19.2
2023-09-17T00:34:00.097Z,19.4
2023-09-17T00:34:58.809Z,19.5
2023-09-17T00:36:01.291Z,19.8
2023-09-17T00:37:00.203Z,19.7
2023-09-17T00:37:58.928Z,19.9
2023-09-17T00:39:01.010Z,20
2023-09-17T00:39:59.777Z,19.9
2023-09-17T00:41:01.014Z,20.1
2023-09-17T00:41:59.754Z,20.1
2023-09-17T00:43:01.296Z,20.1
2023-09-17T00:44:00.145Z,20.1
2023-09-17T00:44:58.886Z,20.1
2023-09-17T00:46:01.050Z,19.9
2023-09-17T00:46:59.777Z,19.8
2023-09-17T00:48:00.498Z,19.7
2023-09-17T00:48:59.214Z,19.7
2023-09-17T00:49:59.937Z,19.7
2023-09-17T00:50:58.561Z,19.6
2023-09-17T00:52:00.250Z,19.7
2023-09-17T00:52:58.970Z,19.6
2023-09-17T00:53:59.660Z,19.5
2023-09-17T00:55:00.372Z,19.4
2023-09-17T00:55:59.389Z,19.3
2023-09-17T00:57:00.200Z,19.3
2023-09-17T00:57:58.883Z,19.2
2023-09-17T00:59:01.150Z,19.1
2023-09-17T00:59:59.821Z,19.1
2023-09-17T01:00:58.780Z,19.1
2023-09-17T01:02:01.119Z,19
2023-09-17T01:03:00.185Z,18.9
2023-09-17T01:03:59.135Z,18.7
2023-09-17T01:05:00.074Z,18.8
2023-09-17T01:05:58.742Z,18.7
2023-09-17T01:07:01.560Z,18.6
2023-09-17T01:08:00.312Z,18.5
2023-09-17T01:08:59.274Z,18.5
2023-09-17T01:09:59.970Z,18.6
2023-09-17T01:10:58.648Z,18.7
2023-09-17T01:12:01.429Z,18.6
2023-09-17T01:13:00.208Z,18.6
2023-09-17T01:13:58.912Z,18.7
2023-09-17T01:15:01.196Z,18.7
2023-09-17T01:15:59.956Z,18.7
2023-09-17T01:16:58.694Z,18.7
2023-09-17T01:18:00.392Z,18.8
2023-09-17T01:18:59.097Z,18.7
2023-09-17T01:19:59.753Z,18.7
2023-09-17T01:21:00.986Z,18.8
2023-09-17T01:21:59.748Z,18.6
2023-09-17T01:23:00.988Z,18.6
2023-09-17T01:23:59.643Z,18.6
2023-09-17T01:25:00.373Z,18.6
2023-09-17T01:25:59.075Z,18.5
2023-09-17T01:26:59.723Z,18.4
2023-09-17T01:28:01.033Z,18.1
2023-09-17T01:28:59.683Z,18.3
2023-09-17T01:30:00.423Z,18.4
2023-09-17T01:30:59.171Z,18.5
2023-09-17T01:32:00.266Z,18.5
2023-09-17T01:32:59.004Z,18.5
2023-09-17T01:33:59.753Z,18.6
2023-09-17T01:35:01.082Z,18.5
2023-09-17T01:35:59.740Z,18.6
2023-09-17T01:37:04.451Z,18.7
2023-09-17T01:37:59.954Z,18.9
2023-09-17T01:38:58.647Z,19.1
2023-09-17T01:40:00.395Z,19.1
2023-09-17T01:40:59.139Z,19.2
2023-09-17T01:42:05.140Z,19.1
2023-09-17T01:42:59.764Z,19.3
2023-09-17T01:44:01.032Z,19.4
2023-09-17T01:44:59.686Z,19.4
2023-09-17T01:46:00.460Z,19.3
2023-09-17T01:47:07.948Z,19.4
2023-09-17T01:48:00.554Z,19.4
2023-09-17T01:48:59.450Z,19.3
2023-09-17T01:50:00.252Z,19.2
2023-09-17T01:50:58.921Z,19.1
2023-09-17T01:52:11.769Z,18.9
2023-09-17T01:53:00.977Z,19
2023-09-17T01:53:59.670Z,18.8
2023-09-17T01:55:00.382Z,18.7
2023-09-17T01:55:59.050Z,18.6
2023-09-17T01:57:13.733Z,18.6
2023-09-17T01:58:01.047Z,18.6
2023-09-17T01:58:59.910Z,18.6
2023-09-17T02:00:01.446Z,18.4
2023-09-17T02:01:00.159Z,18.3
2023-09-17T02:01:58.939Z,18.2
2023-09-17T02:02:59.698Z,18.1
2023-09-17T02:04:01.097Z,18.3
2023-09-17T02:04:59.838Z,18.2
2023-09-17T02:06:01.067Z,18.4
2023-09-17T02:06:59.736Z,18.7
2023-09-17T02:08:01.462Z,18.8
2023-09-17T02:09:00.153Z,18.9
2023-09-17T02:09:58.829Z,19
2023-09-17T02:11:00.987Z,19
2023-09-17T02:11:59.623Z,19.1
2023-09-17T02:13:00.278Z,19.3
2023-09-17T02:13:59.087Z,19.6
2023-09-17T02:14:59.779Z,19.6
2023-09-17T02:16:01.114Z,19.8
2023-09-17T02:16:59.892Z,19.8
2023-09-17T02:18:01.197Z,19.7
2023-09-17T02:18:59.838Z,19.5
2023-09-17T02:20:01.045Z,19.5
2023-09-17T02:20:59.717Z,19.2
2023-09-17T02:22:01.064Z,19.1
2023-09-17T02:22:59.731Z,18.9
2023-09-17T02:24:01.093Z,18.9
2023-09-17T02:24:59.730Z,18.3
2023-09-17T02:26:00.956Z,18.3
2023-09-17T02:27:00.189Z,18.5
2023-09-17T02:27:58.830Z,18.6
2023-09-17T02:29:01.018Z,18.8
2023-09-17T02:29:59.668Z,18.7
2023-09-17T02:31:00.504Z,18.8
2023-09-17T02:31:59.412Z,19
2023-09-17T02:33:00.250Z,19.3
2023-09-17T02:33:59.318Z,19.6
2023-09-17T02:35:00.271Z,19.7
2023-09-17T02:35:58.997Z,19.9
2023-09-17T02:36:59.660Z,19.9
2023-09-17T02:38:00.339Z,19.9
2023-09-17T02:38:58.960Z,19.7
2023-09-17T02:39:59.661Z,19.8
2023-09-17T02:41:00.442Z,19.7
2023-09-17T02:41:59.139Z,19.5
2023-09-17T02:42:59.851Z,19.4
2023-09-17T02:44:01.018Z,19.4
2023-09-17T02:44:59.811Z,19.3
2023-09-17T02:46:01.402Z,19.3
2023-09-17T02:47:00.211Z,19.1
2023-09-17T02:47:58.992Z,19.3
2023-09-17T02:48:59.659Z,19.2
2023-09-17T02:50:00.312Z,19.2
2023-09-17T02:50:59.262Z,19
2023-09-17T02:51:59.910Z,18.9
2023-09-17T02:53:01.055Z,19
2023-09-17T02:53:59.736Z,19
2023-09-17T02:55:01.140Z,18.9
2023-09-17T02:55:59.891Z,18.6
2023-09-17T02:57:00.969Z,18.5
2023-09-17T02:57:59.647Z,18.5
2023-09-17T02:59:01.013Z,18.4
2023-09-17T02:59:59.769Z,18.5
2023-09-17T03:01:01.059Z,18.7
2023-09-17T03:01:59.905Z,18.9
2023-09-17T03:02:58.753Z,19.1
2023-09-17T03:04:01.044Z,19.4
2023-09-17T03:04:59.816Z,19.5
2023-09-17T03:06:01.419Z,19.6
2023-09-17T03:07:00.149Z,19.7
2023-09-17T03:07:58.920Z,19.6
2023-09-17T03:09:01.073Z,19.6
2023-09-17T03:09:59.741Z,19.6
2023-09-17T03:11:00.984Z,19.5
2023-09-17T03:11:59.885Z,19.4
2023-09-17T03:13:01.386Z,19.3
2023-09-17T03:14:00.161Z,19.5
2023-09-17T03:14:59.076Z,19.6
2023-09-17T03:15:59.795Z,19.5
2023-09-17T03:17:01.120Z,19.6
2023-09-17T03:18:00.981Z,19.7
2023-09-17T03:18:59.693Z,19.7
2023-09-17T03:20:00.967Z,19.6
2023-09-17T03:20:59.852Z,19.6
2023-09-17T03:22:01.153Z,19.6
2023-09-17T03:23:05.401Z,19.3
2023-09-17T03:24:00.155Z,19.4
2023-09-17T03:25:04.535Z,19.4
2023-09-17T03:26:00.057Z,19.4
2023-09-17T03:26:58.733Z,19.3
2023-09-17T03:28:08.320Z,19.3
2023-09-17T03:29:01.470Z,19.3
2023-09-17T03:30:00.141Z,19.3
2023-09-17T03:30:58.951Z,19.1
2023-09-17T03:31:59.732Z,19.1
2023-09-17T03:33:10.562Z,19.2
2023-09-17T03:34:00.310Z,19.6
2023-09-17T03:34:58.978Z,19.9
2023-09-17T03:35:59.707Z,20.1
2023-09-17T03:37:01.046Z,20.5
2023-09-17T03:38:13.160Z,20.5
2023-09-17T03:38:59.705Z,20.4
2023-09-17T03:40:01.080Z,20.6
2023-09-17T03:40:59.841Z,20.4
2023-09-17T03:42:01.101Z,20.8
2023-09-17T03:43:15.249Z,21.5
2023-09-17T03:43:59.844Z,22
2023-09-17T03:45:00.988Z,21.9
2023-09-17T03:45:59.773Z,21.9
2023-09-17T03:47:01.100Z,21.9
2023-09-17T03:47:59.925Z,21.6
2023-09-17T03:48:58.651Z,21.6
2023-09-17T03:50:01.073Z,21.6
2023-09-17T03:50:59.814Z,21.7
2023-09-17T03:52:01.307Z,21.5
2023-09-17T03:53:00.057Z,21.2
2023-09-17T03:53:58.792Z,21.2
2023-09-17T03:55:00.977Z,20.9
2023-09-17T03:55:59.630Z,21
2023-09-17T03:57:01.059Z,21
2023-09-17T03:57:59.734Z,20.8
2023-09-17T03:59:01.143Z,20.7
2023-09-17T03:59:59.966Z,20.8
2023-09-17T04:00:58.625Z,20.7
2023-09-17T04:02:00.438Z,20.3
2023-09-17T04:02:59.241Z,20.1
2023-09-17T04:04:00.064Z,20.1
2023-09-17T04:04:58.844Z,20.2
2023-09-17T04:06:01.361Z,20
2023-09-17T04:07:00.121Z,20
2023-09-17T04:07:58.992Z,20
2023-09-17T04:08:59.743Z,20
2023-09-17T04:10:01.084Z,20
2023-09-17T04:10:59.857Z,19.9
2023-09-17T04:12:01.096Z,19.8
2023-09-17T04:12:59.830Z,19.8
2023-09-17T04:14:01.046Z,19.8
2023-09-17T04:14:59.770Z,19.8
2023-09-17T04:16:01.040Z,19.8
2023-09-17T04:16:59.830Z,19.7
2023-09-17T04:18:01.001Z,19.6
2023-09-17T04:18:59.769Z,19.6
2023-09-17T04:20:01.021Z,19.5
2023-09-17T04:20:59.682Z,19.3
2023-09-17T04:22:01.025Z,19.4
2023-09-17T04:22:59.741Z,19.3
2023-09-17T04:24:01.398Z,19.3
2023-09-17T04:25:00.123Z,19.2
2023-09-17T04:25:58.882Z,19.1
2023-09-17T04:26:59.721Z,19.3
2023-09-17T04:28:00.993Z,19
2023-09-17T04:28:59.769Z,19.2
2023-09-17T04:30:01.117Z,19.2
2023-09-17T04:30:59.774Z,19.1
2023-09-17T04:32:01.142Z,19.1
2023-09-17T04:33:00.114Z,19
2023-09-17T04:33:59.742Z,18.9
2023-09-17T04:35:01.022Z,19.1
2023-09-17T04:35:59.810Z,19.2
2023-09-17T04:37:01.030Z,19.1
2023-09-17T04:37:59.727Z,19.1
2023-09-17T04:39:00.482Z,19.2
2023-09-17T04:39:59.192Z,19.3
2023-09-17T04:40:59.954Z,19.2
2023-09-17T04:41:58.704Z,19.3
2023-09-17T04:43:00.988Z,19.3
2023-09-17T04:43:59.708Z,19.2
2023-09-17T04:45:00.986Z,19.2
2023-09-17T04:46:00.133Z,19.2
2023-09-17T04:46:58.951Z,19.1
2023-09-17T04:47:59.702Z,19.1
2023-09-17T04:49:01.004Z,18.9
2023-09-17T04:49:59.693Z,19
2023-09-17T04:51:01.026Z,18.9
2023-09-17T04:51:59.685Z,19
2023-09-17T04:53:00.402Z,18.9
2023-09-17T04:54:00.267Z,18.9
2023-09-17T04:54:59.006Z,18.9
2023-09-17T04:55:59.764Z,18.8
2023-09-17T04:57:01.430Z,18.9
2023-09-17T04:58:00.172Z,18.8
2023-09-17T04:59:02.643Z,18.7
2023-09-17T04:59:59.926Z,18.7
2023-09-17T05:01:01.017Z,19.2
2023-09-17T05:01:59.729Z,19.4
2023-09-17T05:03:01.059Z,19.5
2023-09-17T05:04:05.271Z,19.6
2023-09-17T05:04:59.821Z,20.1
2023-09-17T05:06:01.136Z,20
2023-09-17T05:06:59.879Z,20.3
2023-09-17T05:08:01.016Z,20.1
2023-09-17T05:09:07.532Z,19.6
2023-09-17T05:10:01.106Z,18.5
2023-09-17T05:10:59.862Z,17.7
2023-09-17T05:12:01.109Z,16.8
2023-09-17T05:12:59.843Z,16
2023-09-17T05:14:10.515Z,15.2
2023-09-17T05:15:01.102Z,14.4
2023-09-17T05:15:59.905Z,13.6
2023-09-17T05:17:01.063Z,13.1
2023-09-17T05:17:59.855Z,12.4
2023-09-17T05:19:14.159Z,12.1
2023-09-17T05:20:01.060Z,11.6
2023-09-17T05:21:00.019Z,11
2023-09-17T05:21:59.115Z,10.3
2023-09-17T05:23:00.113Z,9.6
2023-09-17T05:23:58.880Z,9.4
2023-09-17T05:24:59.978Z,9.1
2023-09-17T05:25:58.766Z,8.8
2023-09-17T05:27:01.059Z,8.5
2023-09-17T05:27:59.741Z,8.3
2023-09-17T05:29:01.046Z,7.6
2023-09-17T05:30:00.280Z,7.2
2023-09-17T05:30:59.043Z,6.7
2023-09-17T05:31:59.804Z,6.8
2023-09-17T05:33:01.027Z,6.8
2023-09-17T05:33:59.725Z,6.8
2023-09-17T05:35:01.164Z,6.9
2023-09-17T05:35:59.963Z,7.3
2023-09-17T05:36:58.638Z,7.8
2023-09-17T05:38:00.368Z,8.5
2023-09-17T05:38:59.687Z,9.1
2023-09-17T05:39:59.418Z,10.1
2023-09-17T05:41:00.182Z,10.9
2023-09-17T05:41:59.025Z,11.3
2023-09-17T05:42:59.961Z,12.3
2023-09-17T05:43:58.862Z,13
2023-09-17T05:45:01.011Z,13.9
2023-09-17T05:45:59.775Z,14.3
2023-09-17T05:47:01.165Z,14.7
2023-09-17T05:47:59.905Z,15.3
2023-09-17T05:49:00.992Z,16.1
2023-09-17T05:49:59.749Z,16.3
2023-09-17T05:51:00.970Z,17.1
2023-09-17T05:51:59.671Z,17.7
2023-09-17T05:53:00.396Z,17.5
2023-09-17T05:53:59.056Z,18.1
2023-09-17T05:54:59.906Z,18.6
2023-09-17T05:56:01.068Z,18.6
2023-09-17T05:56:59.808Z,19.1
2023-09-17T05:58:00.979Z,19.3
2023-09-17T05:59:00.110Z,19.8
2023-09-17T05:59:59.309Z,20
2023-09-17T06:01:00.369Z,20
2023-09-17T06:01:59.187Z,20.4
2023-09-17T06:02:59.976Z,20.9
2023-09-17T06:03:58.741Z,21
2023-09-17T06:05:01.371Z,21.2
2023-09-17T06:06:00.403Z,21.7
2023-09-17T06:06:59.488Z,21.5
2023-09-17T06:08:00.234Z,22.1
2023-09-17T06:08:58.910Z,21.9
2023-09-17T06:10:00.027Z,22
2023-09-17T06:10:58.828Z,21.8
2023-09-17T06:12:01.059Z,22
2023-09-17T06:12:59.949Z,21.9
2023-09-17T06:13:58.881Z,22
2023-09-17T06:15:01.293Z,22.1
2023-09-17T06:16:00.184Z,22.1
2023-09-17T06:16:59.032Z,22.2
2023-09-17T06:18:00.112Z,22.1
2023-09-17T06:18:58.812Z,21.9
2023-09-17T06:20:01.630Z,21.4
2023-09-17T06:21:00.990Z,21.7
2023-09-17T06:21:59.656Z,21.9
2023-09-17T06:23:00.430Z,21.7
2023-09-17T06:23:59.149Z,22
2023-09-17T06:24:59.890Z,21.5
2023-09-17T06:25:58.723Z,21.7
2023-09-17T06:27:01.424Z,21.5
2023-09-17T06:28:00.270Z,21.6
2023-09-17T06:28:58.967Z,21.7
2023-09-17T06:30:02.526Z,21.8
2023-09-17T06:30:59.747Z,21.9
2023-09-17T06:32:01.351Z,22
2023-09-17T06:33:00.160Z,22.2
2023-09-17T06:33:58.928Z,22.5
2023-09-17T06:35:01.298Z,22.1
2023-09-17T06:35:59.637Z,21.6
2023-09-17T06:37:00.360Z,21.5
2023-09-17T06:37:59.067Z,21.7
2023-09-17T06:38:59.765Z,21.2
2023-09-17T06:40:03.829Z,20.7
2023-09-17T06:41:01.088Z,20.6
2023-09-17T06:41:59.934Z,20.5
2023-09-17T06:42:58.676Z,20.5
2023-09-17T06:44:01.443Z,20.4
2023-09-17T06:45:06.071Z,21.6
2023-09-17T06:45:59.810Z,21.1
2023-09-17T06:47:01.156Z,20.5
2023-09-17T06:47:59.983Z,20.3
2023-09-17T06:48:59.611Z,20
2023-09-17T06:50:08.819Z,20
2023-09-17T06:51:01.646Z,19.9
2023-09-17T06:52:00.365Z,20.1
2023-09-17T06:52:59.135Z,20
2023-09-17T06:53:59.842Z,20
2023-09-17T06:55:13.788Z,19.8
2023-09-17T06:56:01.054Z,19.6
2023-09-17T06:56:59.780Z,19.6
2023-09-17T06:58:01.038Z,19.7
2023-09-17T06:58:59.831Z,19.6
2023-09-17T07:00:16.601Z,19.6
2023-09-17T07:01:01.062Z,19.5
2023-09-17T07:01:59.878Z,19.6
2023-09-17T07:03:00.726Z,19.7
2023-09-17T07:03:59.424Z,20
2023-09-17T07:05:00.276Z,19.9
2023-09-17T07:05:59.011Z,19.8
2023-09-17T07:06:59.729Z,20
2023-09-17T07:08:01.045Z,20.1
2023-09-17T07:08:59.743Z,20.1
2023-09-17T07:10:00.993Z,20.6
2023-09-17T07:10:59.697Z,20.4
2023-09-17T07:12:00.341Z,20.5
2023-09-17T07:12:59.169Z,20.1
2023-09-17T07:14:00.816Z,20
2023-09-17T07:14:59.738Z,20.1
2023-09-17T07:16:01.068Z,20.1
2023-09-17T07:16:59.970Z,20
2023-09-17T07:17:58.820Z,20.1
2023-09-17T07:19:01.071Z,20
2023-09-17T07:19:59.752Z,19.9
2023-09-17T07:21:01.338Z,19.9
2023-09-17T07:21:59.973Z,19.9
2023-09-17T07:22:58.687Z,19.8
2023-09-17T07:24:01.274Z,19.9
2023-09-17T07:25:00.060Z,19.9
2023-09-17T07:25:59.760Z,20
2023-09-17T07:27:01.245Z,21.7
2023-09-17T07:28:00.326Z,20.6
2023-09-17T07:28:59.222Z,19.9
2023-09-17T07:30:00.167Z,19.6
2023-09-17T07:30:58.935Z,19.3
2023-09-17T07:31:59.946Z,19.6
2023-09-17T07:32:58.714Z,19.8
2023-09-17T07:34:01.070Z,19.5
2023-09-17T07:34:59.760Z,19.4
2023-09-17T07:36:01.638Z,20.8
2023-09-17T07:37:00.981Z,20
2023-09-17T07:37:59.889Z,19.3
2023-09-17T07:39:01.369Z,18.5
2023-09-17T07:40:00.215Z,18.4
2023-09-17T07:40:58.936Z,18.6
2023-09-17T07:41:59.621Z,18.6
2023-09-17T07:43:00.288Z,18.6
2023-09-17T07:43:59.113Z,18.5
2023-09-17T07:44:59.795Z,18.3
2023-09-17T07:46:01.057Z,18.1
2023-09-17T07:47:00.008Z,18.3
2023-09-17T07:47:58.710Z,17.9
2023-09-17T07:49:01.009Z,17.7
2023-09-17T07:49:59.940Z,17.8
2023-09-17T07:50:58.702Z,18
2023-09-17T07:52:00.340Z,17.8
2023-09-17T07:52:59.186Z,17.9
2023-09-17T07:53:59.839Z,18
2023-09-17T07:55:00.970Z,18.3
2023-09-17T07:55:59.686Z,18.1
2023-09-17T07:57:00.954Z,18.5
2023-09-17T07:57:59.602Z,18.3
2023-09-17T07:59:00.335Z,18.1
2023-09-17T07:59:59.047Z,17.8
2023-09-17T08:00:59.793Z,17.8
2023-09-17T08:02:01.114Z,17.9
2023-09-17T08:03:00.097Z,17.5
2023-09-17T08:03:59.169Z,17.1
2023-09-17T08:05:00.156Z,17
2023-09-17T08:05:59.836Z,16.8
2023-09-17T08:07:01.155Z,16.9
2023-09-17T08:07:59.880Z,16.6
2023-09-17T08:09:02.126Z,16.4
2023-09-17T08:10:00.500Z,16.2
2023-09-17T08:11:03.274Z,16.2
2023-09-17T08:12:00.200Z,16.2
2023-09-17T08:12:58.934Z,16.3
2023-09-17T08:13:59.708Z,16.1
2023-09-17T08:15:01.041Z,16.3
2023-09-17T08:16:05.570Z,16.6
2023-09-17T08:16:59.993Z,16.1
2023-09-17T08:17:58.916Z,15.6
2023-09-17T08:18:59.751Z,16.1
2023-09-17T08:20:01.045Z,16.1
2023-09-17T08:21:08.532Z,16.3
2023-09-17T08:22:01.048Z,15.8
2023-09-17T08:23:01.770Z,15.7
2023-09-17T08:24:01.548Z,15.3
2023-09-17T08:25:00.283Z,15.3
2023-09-17T08:26:10.618Z,15.4
2023-09-17T08:26:59.983Z,14.9
2023-09-17T08:27:58.709Z,14
2023-09-17T08:29:00.360Z,13.4
2023-09-17T08:29:59.157Z,13.3
2023-09-17T08:31:12.471Z,14
2023-09-17T08:31:59.926Z,13.9
2023-09-17T08:32:58.799Z,14.3
2023-09-17T08:34:01.069Z,14.2
2023-09-17T08:34:59.733Z,14.2
2023-09-17T08:36:14.943Z,14.2
2023-09-17T08:37:01.432Z,14.2
2023-09-17T08:38:00.202Z,13.5
2023-09-17T08:38:59.156Z,13.4
2023-09-17T08:39:59.799Z,13.2
2023-09-17T08:41:01.245Z,13.5
2023-09-17T08:41:59.913Z,13.4
2023-09-17T08:43:01.422Z,13.2
2023-09-17T08:44:00.183Z,12.1
2023-09-17T08:44:58.900Z,12.5
2023-09-17T08:46:01.627Z,12.9
2023-09-17T08:47:00.365Z,12.2
2023-09-17T08:47:59.166Z,11.7
2023-09-17T08:48:59.914Z,11.7
2023-09-17T08:50:01.526Z,11.4
2023-09-17T08:51:00.195Z,11.4
2023-09-17T08:51:58.962Z,11.9
2023-09-17T08:52:59.606Z,12
2023-09-17T08:54:00.319Z,11.6
2023-09-17T08:54:58.961Z,11.3
2023-09-17T08:55:59.693Z,11.8
2023-09-17T08:57:01.359Z,12.6
2023-09-17T08:58:00.066Z,11.8
2023-09-17T08:58:58.847Z,11.6
2023-09-17T09:00:03.689Z,11.1
2023-09-17T09:01:03.725Z,11.1
2023-09-17T09:02:01.141Z,11.1
2023-09-17T09:02:59.910Z,11.2
2023-09-17T09:03:58.799Z,11
2023-09-17T09:05:01.154Z,10.9
2023-09-17T09:05:59.934Z,11.1
2023-09-17T09:06:58.999Z,11.2
2023-09-17T09:07:59.774Z,11
2023-09-17T09:09:01.075Z,12.4
2023-09-17T09:09:59.957Z,11.4
2023-09-17T09:10:59.577Z,10.7
2023-09-17T09:12:00.044Z,10.1
2023-09-17T09:12:58.738Z,9.6
2023-09-17T09:14:00.995Z,9.4
2023-09-17T09:14:59.680Z,10.7
2023-09-17T09:16:00.445Z,9.9
2023-09-17T09:16:59.330Z,9.4
2023-09-17T09:18:00.207Z,9.4
2023-09-17T09:18:58.869Z,9.4
2023-09-17T09:20:01.310Z,8.7
2023-09-17T09:21:00.028Z,8.5
2023-09-17T09:21:58.797Z,8.3
2023-09-17T09:23:05.051Z,8.4
2023-09-17T09:24:01.074Z,8.3
2023-09-17T09:24:59.727Z,8
2023-09-17T09:26:01.101Z,8
2023-09-17T09:26:59.858Z,8.3
2023-09-17T09:28:01.619Z,8.1
2023-09-17T09:29:00.352Z,7.8
2023-09-17T09:29:59.041Z,7.8
2023-09-17T09:30:59.683Z,7.6
2023-09-17T09:32:01.322Z,7.8
2023-09-17T09:33:00.225Z,7.3
2023-09-17T09:33:59.342Z,6.8
2023-09-17T09:35:00.147Z,6.8
2023-09-17T09:35:58.981Z,7.3
2023-09-17T09:36:59.704Z,6.7
2023-09-17T09:38:00.998Z,6.4
2023-09-17T09:38:59.666Z,6.5
2023-09-17T09:40:00.960Z,6.5
2023-09-17T09:40:59.903Z,7
2023-09-17T09:41:58.624Z,6.5
2023-09-17T09:43:01.012Z,6.4
2023-09-17T09:43:59.696Z,5.9
2023-09-17T09:45:01.000Z,6
2023-09-17T09:45:59.681Z,6
2023-09-17T09:47:00.427Z,5.8
2023-09-17T09:47:59.331Z,6
2023-09-17T09:49:00.673Z,6.3
2023-09-17T09:49:59.406Z,6.1
2023-09-17T09:51:00.278Z,5.8
2023-09-17T09:51:58.974Z,4.7
2023-09-17T09:52:59.742Z,4.6
2023-09-17T09:54:01.263Z,4.6
2023-09-17T09:55:00.015Z,4.6
2023-09-17T09:55:58.747Z,4.6
2023-09-17T09:57:01.075Z,4.6
2023-09-17T09:57:59.752Z,4.7
2023-09-17T09:59:01.116Z,4.7
2023-09-17T09:59:59.775Z,4.7
2023-09-17T10:01:01.011Z,4.1
2023-09-17T10:01:59.656Z,3.2
2023-09-17T10:03:00.376Z,3.2
2023-09-17T10:03:59.406Z,3.9
2023-09-17T10:05:00.334Z,4.1
2023-09-17T10:05:59.037Z,3.3
2023-09-17T10:07:01.250Z,3.4
2023-09-17T10:07:59.720Z,3.4
2023-09-17T10:09:01.060Z,3.4
2023-09-17T10:09:59.686Z,3.1
2023-09-17T10:11:00.483Z,2.8
2023-09-17T10:12:04.349Z,2.9
2023-09-17T10:13:00.978Z,2.9
2023-09-17T10:13:59.664Z,2.8
2023-09-17T10:15:00.316Z,2.7
2023-09-17T10:15:59.089Z,3
2023-09-17T10:17:06.113Z,2.6
2023-09-17T10:18:00.035Z,2.2
2023-09-17T10:18:58.761Z,2.2
2023-09-17T10:20:01.073Z,1.6
2023-09-17T10:20:59.816Z,1.5
2023-09-17T10:22:10.225Z,1.8
2023-09-17T10:23:00.688Z,2.2
2023-09-17T10:23:59.409Z,3.6
2023-09-17T10:25:00.035Z,2.4
2023-09-17T10:25:58.741Z,1.6
2023-09-17T10:27:14.196Z,1.9
2023-09-17T10:28:01.081Z,3.1
2023-09-17T10:28:59.946Z,2.4
2023-09-17T10:29:58.638Z,2.7
2023-09-17T10:31:00.405Z,2.4
2023-09-17T10:31:59.180Z,1.9
2023-09-17T10:33:00.284Z,1.6
2023-09-17T10:33:58.957Z,1.6
2023-09-17T10:34:59.648Z,1.9
2023-09-17T10:36:00.310Z,1.3
2023-09-17T10:36:59.069Z,1
2023-09-17T10:37:59.845Z,1
2023-09-17T10:39:01.152Z,1
2023-09-17T10:39:59.823Z,1
2023-09-17T10:41:01.137Z,1
2023-09-17T10:41:59.721Z,1
2023-09-17T10:43:01.441Z,1
2023-09-17T10:44:00.221Z,1
2023-09-17T10:44:58.921Z,1
2023-09-17T10:46:00.982Z,1
2023-09-17T10:46:59.737Z,1
2023-09-17T10:48:01.021Z,1
2023-09-17T10:48:59.757Z,1
2023-09-17T10:50:01.055Z,1.1
2023-09-17T10:51:00.170Z,1.2
2023-09-17T10:51:58.872Z,1
2023-09-17T10:53:01.230Z,1
2023-09-17T10:54:00.013Z,1
2023-09-17T10:54:58.692Z,1
2023-09-17T10:56:00.557Z,1
2023-09-17T10:56:59.298Z,1
2023-09-17T10:58:00.039Z,1
2023-09-17T10:58:58.783Z,1
2023-09-17T11:00:00.981Z,1
2023-09-17T11:00:59.703Z,1
2023-09-17T11:02:01.339Z,1
2023-09-17T11:03:00.116Z,1
2023-09-17T11:03:58.846Z,1
2023-09-17T11:05:01.022Z,1
2023-09-17T11:05:59.813Z,1
2023-09-17T11:07:01.048Z,1
2023-09-17T11:07:59.944Z,1
2023-09-17T11:08:58.680Z,1
2023-09-17T11:10:00.425Z,1
2023-09-17T11:10:59.106Z,1
2023-09-17T11:11:59.785Z,1
2023-09-17T11:13:01.078Z,1
2023-09-17T11:13:59.737Z,1
2023-09-17T11:15:01.073Z,1
2023-09-17T11:15:59.760Z,1
2023-09-17T11:17:01.133Z,1
2023-09-17T11:17:59.985Z,1
2023-09-17T11:18:59.038Z,1
2023-09-17T11:19:59.805Z,1
2023-09-17T11:21:01.018Z,1
2023-09-17T11:21:59.683Z,1
2023-09-17T11:23:00.487Z,1
2023-09-17T11:23:59.173Z,1
2023-09-17T11:24:59.895Z,1
2023-09-17T11:26:01.079Z,1
2023-09-17T11:26:59.739Z,1
2023-09-17T11:28:01.070Z,1
2023-09-17T11:29:00.268Z,1
2023-09-17T11:29:59.112Z,1
2023-09-17T11:31:00.047Z,1
2023-09-17T11:31:59.089Z,1
2023-09-17T11:33:00.271Z,1
2023-09-17T11:33:59.049Z,1
2023-09-17T11:34:59.850Z,1
2023-09-17T11:36:00.964Z,1
2023-09-17T11:36:59.692Z,1
2023-09-17T11:38:01.109Z,1
2023-09-17T11:38:59.789Z,1
2023-09-17T11:40:01.032Z,1
2023-09-17T11:40:59.743Z,1
2023-09-17T11:42:01.305Z,1
2023-09-17T11:43:00.017Z,1
2023-09-17T11:43:58.736Z,1
2023-09-17T11:45:00.968Z,1
2023-09-17T11:45:59.697Z,1
2023-09-17T11:47:00.621Z,1
2023-09-17T11:47:59.779Z,1
2023-09-17T11:49:01.004Z,1
2023-09-17T11:49:59.683Z,1
2023-09-17T11:51:01.015Z,1
2023-09-17T11:51:59.792Z,1
2023-09-17T11:53:01.800Z,1
2023-09-17T11:54:00.312Z,1
2023-09-17T11:54:58.931Z,1
2023-09-17T11:56:01.086Z,1
2023-09-17T11:56:59.802Z,1
2023-09-17T11:58:05.469Z,1
2023-09-17T11:59:01.110Z,1
2023-09-17T11:59:59.753Z,1
2023-09-17T12:01:01.444Z,1
2023-09-17T12:02:00.234Z,1
2023-09-17T12:03:06.798Z,1
2023-09-17T12:04:00.025Z,1
2023-09-17T12:04:58.860Z,1
2023-09-17T12:06:01.008Z,1
2023-09-17T12:06:59.676Z,1
2023-09-17T12:08:08.780Z,1
2023-09-17T12:09:01.031Z,1
2023-09-17T12:09:59.848Z,1
2023-09-17T12:11:01.073Z,1
2023-09-17T12:11:59.912Z,1
2023-09-17T12:13:10.617Z,1
2023-09-17T12:13:59.823Z,1
2023-09-17T12:15:01.252Z,1
2023-09-17T12:15:59.919Z,1
2023-09-17T12:17:01.127Z,1
2023-09-17T12:18:13.462Z,1
2023-09-17T12:19:11.632Z,1
2023-09-17T12:20:00.526Z,1
2023-09-17T12:20:59.470Z,1
2023-09-17T12:22:00.206Z,1
2023-09-17T12:22:59.007Z,1
2023-09-17T12:23:59.796Z,1
2023-09-17T12:25:01.015Z,1
2023-09-17T12:25:59.699Z,1
2023-09-17T12:27:01.026Z,1
2023-09-17T12:27:59.711Z,1
2023-09-17T12:29:01.164Z,1
2023-09-17T12:29:59.921Z,1
2023-09-17T12:31:01.205Z,1
2023-09-17T12:31:59.985Z,1
2023-09-17T12:32:58.767Z,1
2023-09-17T12:34:01.062Z,1
2023-09-17T12:34:59.761Z,1
2023-09-17T12:36:00.959Z,1
2023-09-17T12:36:59.590Z,1
2023-09-17T12:38:00.335Z,1
2023-09-17T12:38:59.058Z,1
2023-09-17T12:39:59.787Z,1
2023-09-17T12:41:01.180Z,1
2023-09-17T12:41:59.708Z,1
2023-09-17T12:43:01.030Z,1
2023-09-17T12:43:59.739Z,1
2023-09-17T12:45:01.051Z,1
2023-09-17T12:45:59.914Z,1
2023-09-17T12:46:58.732Z,1
2023-09-17T12:48:00.614Z,1
2023-09-17T12:48:59.355Z,1
2023-09-17T12:50:00.309Z,1
2023-09-17T12:51:01.926Z,1
2023-09-17T12:52:00.065Z,1
2023-09-17T12:52:58.839Z,1
2023-09-17T12:54:00.604Z,1
2023-09-17T12:54:59.268Z,1
2023-09-17T12:56:00.020Z,1
2023-09-17T12:56:58.799Z,1
2023-09-17T12:58:01.441Z,1
2023-09-17T12:59:00.152Z,1
2023-09-17T12:59:58.887Z,1
2023-09-17T13:01:01.021Z,1
2023-09-17T13:02:00.026Z,1
2023-09-17T13:02:58.909Z,1
2023-09-17T13:04:01.432Z,1
2023-09-17T13:04:59.673Z,1
2023-09-17T13:06:00.362Z,1
2023-09-17T13:06:59.036Z,1
2023-09-17T13:07:59.836Z,1
2023-09-17T13:09:01.011Z,1
2023-09-17T13:09:59.729Z,1
2023-09-17T13:11:01.051Z,1
2023-09-17T13:11:59.789Z,1
2023-09-17T13:13:01.410Z,1
2023-09-17T13:13:59.894Z,1
2023-09-17T13:15:01.038Z,1
2023-09-17T13:15:59.741Z,1
2023-09-17T13:17:01.110Z,1
2023-09-17T13:17:59.727Z,1
2023-09-17T13:19:01.230Z,1
2023-09-17T13:20:00.319Z,1
2023-09-17T13:20:59.030Z,1
2023-09-17T13:21:59.750Z,1
2023-09-17T13:23:01.015Z,1
2023-09-17T13:23:59.761Z,1
2023-09-17T13:25:00.971Z,1
2023-09-17T13:25:59.720Z,1
2023-09-17T13:27:01.076Z,1
2023-09-17T13:27:59.785Z,1
2023-09-17T13:29:01.048Z,1
2023-09-17T13:29:59.697Z,1
2023-09-17T13:31:01.064Z,1
2023-09-17T13:31:59.915Z,1
2023-09-17T13:32:58.734Z,1
2023-09-17T13:34:01.010Z,1
2023-09-17T13:34:59.722Z,1
2023-09-17T13:36:00.980Z,1
2023-09-17T13:36:59.752Z,1
2023-09-17T13:38:01.059Z,1
2023-09-17T13:39:05.234Z,1
2023-09-17T13:39:59.882Z,1
2023-09-17T13:40:58.721Z,1
2023-09-17T13:42:01.080Z,1
2023-09-17T13:42:59.820Z,1
2023-09-17T13:44:06.782Z,1